Time;durP1;ratioP1;P1;durP2;ratioP2;P2;SDS_P1;SDS_P2;PMS_P1;PMS_P2;Temp;Humidity;BMP_temperature;BMP_pressure;BME280_temperature;BME280_humidity;BME280_pressure;Samples;Min_cycle;Max_cycle;Signal;HPM_P1;HPM_P2
2022/10/08 00:01:28;;;;;;;14.50;3.05;;;;;;;;;;5050418;28;20095;-72
2022/10/08 00:03:55;;;;;;;13.27;2.95;;;;;;;;;;5047501;28;20044;-72
2022/10/08 00:06:22;;;;;;;13.75;3.25;;;;;;;;;;5049883;28;20045;-72
2022/10/08 00:08:53;;;;;;;13.60;2.70;;;;;;;;;;5050471;28;20053;-72
2022/10/08 00:11:21;;;;;;;15.90;3.23;;;;;;;;;;5048235;28;20045;-72
2022/10/08 00:13:47;;;;;;;13.43;2.72;;;;;;;;;;5050171;28;20080;-72
2022/10/08 00:16:14;;;;;;;15.85;2.83;;;;;;;;;;5049110;28;20415;-72
2022/10/08 00:18:41;;;;;;;11.30;2.50;;;;;;;;;;5050918;28;20056;-71
2022/10/08 00:21:16;;;;;;;14.05;2.88;;;;;;;;;;5050883;28;20048;-72
2022/10/08 00:23:43;;;;;;;11.88;2.80;;;;;;;;;;5051917;28;20037;-72
2022/10/08 00:26:10;;;;;;;13.23;3.15;;;;;;;;;;5047745;28;20089;-72
2022/10/08 00:28:37;;;;;;;10.88;2.70;;;;;;;;;;5033228;28;20033;-72
2022/10/08 00:31:10;;;;;;;13.23;3.30;;;;;;;;;;5048878;28;20582;-72
2022/10/08 00:33:37;;;;;;;11.65;2.80;;;;;;;;;;5029356;28;20459;-72
2022/10/08 00:36:04;;;;;;;18.27;3.25;;;;;;;;;;5039905;28;20068;-72
2022/10/08 00:38:30;;;;;;;13.20;2.67;;;;;;;;;;5052221;28;20121;-72
2022/10/08 00:40:56;;;;;;;13.48;2.92;;;;;;;;;;5053286;28;20076;-72
2022/10/08 00:43:55;;;;;;;13.05;2.78;;;;;;;;;;5050420;28;20078;-72
2022/10/08 00:46:22;;;;;;;12.60;2.60;;;;;;;;;;5014504;28;20525;-72
2022/10/08 00:48:49;;;;;;;13.77;2.67;;;;;;;;;;5052380;28;20120;-72
2022/10/08 00:51:15;;;;;;;14.75;2.97;;;;;;;;;;5054814;28;20044;-72
2022/10/08 00:53:42;;;;;;;15.07;3.22;;;;;;;;;;5053670;28;20080;-72
2022/10/08 00:56:09;;;;;;;13.52;2.75;;;;;;;;;;5052723;28;20510;-71
2022/10/08 00:58:36;;;;;;;12.57;2.58;;;;;;;;;;5053866;28;20132;-72
2022/10/08 01:01:02;;;;;;;10.52;2.80;;;;;;;;;;5052882;28;20731;-72
2022/10/08 01:03:28;;;;;;;14.32;3.30;;;;;;;;;;5055030;28;20044;-71
2022/10/08 01:05:54;;;;;;;13.50;3.08;;;;;;;;;;5051463;28;20048;-71
2022/10/08 01:08:40;;;;;;;11.52;2.75;;;;;;;;;;5054886;28;20430;-72
2022/10/08 01:11:12;;;;;;;12.48;2.47;;;;;;;;;;5047180;28;20044;-72
2022/10/08 01:13:43;;;;;;;15.23;2.50;;;;;;;;;;5052642;28;20094;-72
2022/10/08 01:16:14;;;;;;;13.32;3.17;;;;;;;;;;5019572;28;20056;-72
2022/10/08 01:18:40;;;;;;;17.42;2.78;;;;;;;;;;5053565;28;20045;-71
2022/10/08 01:21:14;;;;;;;12.35;2.70;;;;;;;;;;5053712;28;20106;-72
2022/10/08 01:23:47;;;;;;;13.32;2.72;;;;;;;;;;5053025;28;20053;-72
2022/10/08 01:26:28;;;;;;;14.07;3.00;;;;;;;;;;5051782;28;20096;-72
2022/10/08 01:29:02;;;;;;;12.73;2.95;;;;;;;;;;5035605;28;20132;-72
2022/10/08 01:31:42;;;;;;;11.40;2.70;;;;;;;;;;5049015;28;20037;-72
2022/10/08 01:34:22;;;;;;;14.48;3.30;;;;;;;;;;5040820;28;20419;-72
2022/10/08 01:36:50;;;;;;;11.85;3.25;;;;;;;;;;5031355;28;20052;-71
2022/10/08 01:39:18;;;;;;;13.00;2.97;;;;;;;;;;5052367;28;20499;-71
2022/10/08 01:41:47;;;;;;;12.88;2.90;;;;;;;;;;5051008;28;20132;-71
2022/10/08 01:44:22;;;;;;;12.55;2.85;;;;;;;;;;5049014;28;20235;-71
2022/10/08 01:46:50;;;;;;;11.18;2.72;;;;;;;;;;5065334;28;20045;-72
2022/10/08 01:49:19;;;;;;;13.40;3.17;;;;;;;;;;5053440;28;20099;-72
2022/10/08 01:51:51;;;;;;;13.40;3.00;;;;;;;;;;5052863;28;20057;-72
2022/10/08 01:54:17;;;;;;;13.20;3.40;;;;;;;;;;5030702;28;20088;-71
2022/10/08 01:56:44;;;;;;;11.65;2.92;;;;;;;;;;5043391;28;20586;-71
2022/10/08 01:59:18;;;;;;;12.15;3.25;;;;;;;;;;5054817;28;20049;-71
2022/10/08 02:01:44;;;;;;;13.50;3.40;;;;;;;;;;5053120;28;20045;-71
2022/10/08 02:06:56;;;;;;;11.07;3.13;;;;;;;;;;5067414;28;20135;-72
2022/10/08 02:09:24;;;;;;;10.57;2.90;;;;;;;;;;5053895;28;20468;-72
2022/10/08 02:11:50;;;;;;;13.52;3.50;;;;;;;;;;5015245;28;20053;-71
2022/10/08 02:14:16;;;;;;;10.85;2.83;;;;;;;;;;5052394;28;20098;-72
2022/10/08 02:16:46;;;;;;;11.27;2.85;;;;;;;;;;5048933;28;20109;-72
2022/10/08 02:19:16;;;;;;;14.25;2.83;;;;;;;;;;5052867;28;20406;-71
2022/10/08 02:21:43;;;;;;;10.60;3.08;;;;;;;;;;5053016;28;20102;-71
2022/10/08 02:24:12;;;;;;;12.27;2.90;;;;;;;;;;5052697;28;20041;-71
2022/10/08 02:26:47;;;;;;;10.90;3.05;;;;;;;;;;5051120;28;20041;-71
2022/10/08 02:29:23;;;;;;;11.60;3.35;;;;;;;;;;5069995;28;20056;-71
2022/10/08 02:31:52;;;;;;;11.02;2.92;;;;;;;;;;5049839;28;20041;-71
2022/10/08 02:34:27;;;;;;;10.27;2.70;;;;;;;;;;5050612;28;20037;-71
2022/10/08 02:36:58;;;;;;;10.13;2.78;;;;;;;;;;5048973;28;20462;-71
2022/10/08 02:39:25;;;;;;;11.13;2.70;;;;;;;;;;5053261;28;20068;-72
2022/10/08 02:41:53;;;;;;;12.10;2.90;;;;;;;;;;5051617;28;20312;-72
2022/10/08 02:44:38;;;;;;;10.35;2.40;;;;;;;;;;5052784;28;20045;-72
2022/10/08 02:47:07;;;;;;;11.30;2.95;;;;;;;;;;5050062;28;20087;-72
2022/10/08 02:49:36;;;;;;;8.15;2.58;;;;;;;;;;5051110;28;20049;-72
2022/10/08 02:52:04;;;;;;;8.75;2.70;;;;;;;;;;5051592;28;20033;-71
2022/10/08 02:54:35;;;;;;;10.05;2.90;;;;;;;;;;5052468;28;20080;-72
2022/10/08 02:57:06;;;;;;;11.20;3.03;;;;;;;;;;5066253;28;20045;-72
2022/10/08 02:59:32;;;;;;;9.60;2.65;;;;;;;;;;5045197;28;20056;-72
2022/10/08 03:02:01;;;;;;;10.38;2.97;;;;;;;;;;5050390;28;20507;-71
2022/10/08 03:04:30;;;;;;;7.93;3.10;;;;;;;;;;5044642;28;20048;-72
2022/10/08 03:06:56;;;;;;;10.73;2.85;;;;;;;;;;5051323;28;20121;-72
2022/10/08 03:09:24;;;;;;;10.25;3.15;;;;;;;;;;5051024;28;20419;-72
2022/10/08 03:11:51;;;;;;;9.75;2.90;;;;;;;;;;5052169;28;20391;-72
2022/10/08 03:14:18;;;;;;;9.02;3.33;;;;;;;;;;5051147;28;20045;-72
2022/10/08 03:16:45;;;;;;;8.65;2.78;;;;;;;;;;5050607;28;20049;-71
2022/10/08 03:19:12;;;;;;;8.85;2.92;;;;;;;;;;5067056;28;20045;-72
2022/10/08 03:21:38;;;;;;;11.52;2.95;;;;;;;;;;5066802;28;20041;-72
2022/10/08 03:24:14;;;;;;;9.52;2.92;;;;;;;;;;5033228;28;20052;-72
2022/10/08 03:26:41;;;;;;;8.77;2.97;;;;;;;;;;5052037;28;20052;-71
2022/10/08 03:29:08;;;;;;;10.85;3.03;;;;;;;;;;5051260;28;20710;-71
2022/10/08 03:31:34;;;;;;;12.18;3.33;;;;;;;;;;5051986;28;20052;-71
2022/10/08 03:34:00;;;;;;;7.88;3.03;;;;;;;;;;5048425;28;20435;-72
2022/10/08 03:36:27;;;;;;;12.05;3.30;;;;;;;;;;5050737;28;20045;-72
2022/10/08 03:38:53;;;;;;;10.32;3.08;;;;;;;;;;5049379;28;20114;-71
2022/10/08 03:41:19;;;;;;;10.85;3.38;;;;;;;;;;5050899;28;20073;-71
2022/10/08 03:43:45;;;;;;;11.65;4.00;;;;;;;;;;5050854;28;20469;-71
2022/10/08 03:46:12;;;;;;;11.63;2.92;;;;;;;;;;5050400;28;20041;-72
2022/10/08 03:48:38;;;;;;;10.63;3.50;;;;;;;;;;5048092;28;20052;-72
2022/10/08 03:51:09;;;;;;;10.18;3.25;;;;;;;;;;5051217;28;20040;-72
2022/10/08 03:53:36;;;;;;;9.90;3.30;;;;;;;;;;5051565;28;20561;-72
2022/10/08 03:56:03;;;;;;;11.60;3.30;;;;;;;;;;5014576;28;20130;-72
2022/10/08 03:58:29;;;;;;;12.38;3.38;;;;;;;;;;5042676;28;20049;-71
2022/10/08 04:00:57;;;;;;;14.55;3.63;;;;;;;;;;5056628;28;20067;-71
2022/10/08 04:03:23;;;;;;;11.25;3.25;;;;;;;;;;5040734;28;20044;-72
2022/10/08 04:05:49;;;;;;;10.93;3.13;;;;;;;;;;5041904;28;20044;-72
2022/10/08 04:08:15;;;;;;;12.65;3.30;;;;;;;;;;5023271;28;20459;-72
2022/10/08 04:10:41;;;;;;;10.57;2.95;;;;;;;;;;5041245;28;20099;-72
2022/10/08 04:13:07;;;;;;;10.02;3.40;;;;;;;;;;5030638;28;20061;-72
2022/10/08 04:15:36;;;;;;;9.85;2.83;;;;;;;;;;5041424;28;20048;-72
2022/10/08 04:18:03;;;;;;;10.65;3.20;;;;;;;;;;5040931;28;20124;-71
2022/10/08 04:20:29;;;;;;;10.77;3.33;;;;;;;;;;5041734;28;20050;-71
2022/10/08 04:22:55;;;;;;;9.10;2.95;;;;;;;;;;5024513;28;20068;-71
2022/10/08 04:25:21;;;;;;;13.38;3.80;;;;;;;;;;5043859;28;20071;-71
2022/10/08 04:27:48;;;;;;;10.98;3.10;;;;;;;;;;5045414;28;20502;-71
2022/10/08 04:30:15;;;;;;;13.80;3.25;;;;;;;;;;5054250;28;20048;-72
2022/10/08 04:32:41;;;;;;;7.88;3.60;;;;;;;;;;5053331;28;20060;-71
2022/10/08 04:35:07;;;;;;;12.13;3.58;;;;;;;;;;5054860;28;20045;-71
2022/10/08 04:37:33;;;;;;;12.88;3.75;;;;;;;;;;5044551;28;20175;-71
2022/10/08 04:39:59;;;;;;;12.90;3.72;;;;;;;;;;5053515;28;20119;-71
2022/10/08 04:42:25;;;;;;;9.98;3.70;;;;;;;;;;5054848;28;20034;-72
2022/10/08 04:44:51;;;;;;;13.40;4.00;;;;;;;;;;5031289;28;20072;-72
2022/10/08 04:47:17;;;;;;;12.63;3.78;;;;;;;;;;5068844;28;20047;-71
2022/10/08 04:49:43;;;;;;;8.75;3.53;;;;;;;;;;5054472;28;20127;-71
2022/10/08 04:52:09;;;;;;;13.40;4.15;;;;;;;;;;5054611;28;20100;-72
2022/10/08 04:54:35;;;;;;;11.77;3.60;;;;;;;;;;5054404;28;20049;-71
2022/10/08 04:57:01;;;;;;;10.98;4.45;;;;;;;;;;5054155;28;20037;-71
2022/10/08 04:59:28;;;;;;;13.30;4.43;;;;;;;;;;5054047;28;20415;-72
2022/10/08 05:01:55;;;;;;;11.32;4.43;;;;;;;;;;5065794;28;20466;-71
2022/10/08 05:04:21;;;;;;;10.90;3.97;;;;;;;;;;5056463;28;20048;-72
2022/10/08 05:06:48;;;;;;;10.88;4.05;;;;;;;;;;5052801;28;20040;-71
2022/10/08 05:09:14;;;;;;;12.15;4.78;;;;;;;;;;5054039;28;20072;-72
2022/10/08 05:11:40;;;;;;;12.25;4.78;;;;;;;;;;5051678;28;20083;-71
2022/10/08 05:14:06;;;;;;;13.57;4.97;;;;;;;;;;5052556;28;20044;-71
2022/10/08 05:16:32;;;;;;;10.05;4.32;;;;;;;;;;5024279;28;20476;-72
2022/10/08 05:18:58;;;;;;;10.77;3.92;;;;;;;;;;5048917;28;20045;-72
2022/10/08 05:21:26;;;;;;;17.33;4.60;;;;;;;;;;5053300;28;20041;-71
2022/10/08 05:23:55;;;;;;;12.90;4.30;;;;;;;;;;5054465;28;20057;-71
2022/10/08 05:26:22;;;;;;;11.80;4.30;;;;;;;;;;5052499;28;20128;-72
2022/10/08 05:28:48;;;;;;;9.90;3.95;;;;;;;;;;5051048;28;20076;-72
2022/10/08 05:31:14;;;;;;;10.57;4.47;;;;;;;;;;5069287;28;20045;-72
2022/10/08 05:33:41;;;;;;;11.65;4.20;;;;;;;;;;5051872;28;20084;-72
2022/10/08 05:36:08;;;;;;;14.98;4.28;;;;;;;;;;5043188;28;20128;-72
2022/10/08 05:38:34;;;;;;;12.05;3.95;;;;;;;;;;5044810;28;20103;-72
2022/10/08 05:41:07;;;;;;;9.82;3.33;;;;;;;;;;5018833;28;20518;-72
2022/10/08 05:43:33;;;;;;;10.63;3.50;;;;;;;;;;5052837;28;20045;-73
2022/10/08 05:45:59;;;;;;;13.55;3.80;;;;;;;;;;5050582;28;20041;-72
2022/10/08 05:48:25;;;;;;;16.52;3.45;;;;;;;;;;5050225;28;20120;-72
2022/10/08 05:50:51;;;;;;;12.93;3.50;;;;;;;;;;5031659;28;20045;-72
2022/10/08 05:53:17;;;;;;;14.65;3.58;;;;;;;;;;5042980;28;20084;-71
2022/10/08 05:55:43;;;;;;;14.65;3.97;;;;;;;;;;5050855;28;21367;-71
2022/10/08 05:58:09;;;;;;;13.95;4.40;;;;;;;;;;5051930;28;20469;-71
2022/10/08 06:00:35;;;;;;;10.50;3.42;;;;;;;;;;5053109;28;20059;-72
2022/10/08 06:03:01;;;;;;;12.27;3.88;;;;;;;;;;5050247;28;20402;-71
2022/10/08 06:05:27;;;;;;;11.40;4.00;;;;;;;;;;5046250;28;20128;-71
2022/10/08 06:07:56;;;;;;;13.27;3.88;;;;;;;;;;5049231;28;20487;-72
2022/10/08 06:10:22;;;;;;;13.52;3.50;;;;;;;;;;5050396;28;20654;-71
2022/10/08 06:12:48;;;;;;;13.20;3.85;;;;;;;;;;5052572;28;20037;-71
2022/10/08 06:15:14;;;;;;;11.18;3.75;;;;;;;;;;5052164;28;20041;-71
2022/10/08 06:17:40;;;;;;;14.02;3.38;;;;;;;;;;5052007;28;20072;-71
2022/10/08 06:20:06;;;;;;;11.98;3.25;;;;;;;;;;5034775;28;20079;-71
2022/10/08 06:22:32;;;;;;;15.30;3.70;;;;;;;;;;5046025;28;20038;-71
2022/10/08 06:24:58;;;;;;;12.23;3.30;;;;;;;;;;5036693;28;20461;-71
2022/10/08 06:27:24;;;;;;;15.27;3.92;;;;;;;;;;5057089;28;20044;-71
2022/10/08 06:29:50;;;;;;;14.63;3.63;;;;;;;;;;5049139;28;20548;-71
2022/10/08 06:32:16;;;;;;;12.32;3.38;;;;;;;;;;5047972;28;20108;-72
2022/10/08 06:34:42;;;;;;;10.52;3.22;;;;;;;;;;5042475;28;20057;-72
2022/10/08 06:37:08;;;;;;;11.35;2.72;;;;;;;;;;5051228;28;20059;-72
2022/10/08 06:39:34;;;;;;;16.80;3.35;;;;;;;;;;5052343;28;20041;-72
2022/10/08 06:42:00;;;;;;;10.48;2.95;;;;;;;;;;5063454;28;20052;-72
2022/10/08 06:44:26;;;;;;;10.48;2.60;;;;;;;;;;5053133;28;20183;-72
2022/10/08 06:46:52;;;;;;;13.60;2.83;;;;;;;;;;5049581;28;20038;-72
2022/10/08 06:49:18;;;;;;;10.82;3.25;;;;;;;;;;5034334;28;20048;-72
2022/10/08 06:51:44;;;;;;;8.40;2.80;;;;;;;;;;5051440;28;20051;-72
2022/10/08 06:54:10;;;;;;;12.50;2.90;;;;;;;;;;5052366;28;20505;-72
2022/10/08 06:56:37;;;;;;;12.20;3.63;;;;;;;;;;5052677;28;20037;-72
2022/10/08 06:59:04;;;;;;;12.57;3.28;;;;;;;;;;5051562;28;20142;-72
2022/10/08 07:01:30;;;;;;;13.10;3.75;;;;;;;;;;5038901;28;20041;-72
2022/10/08 07:03:57;;;;;;;14.57;4.22;;;;;;;;;;5051583;28;20099;-72
2022/10/08 07:06:23;;;;;;;13.15;3.58;;;;;;;;;;5052653;28;20049;-73
2022/10/08 07:08:53;;;;;;;11.80;3.40;;;;;;;;;;5050318;28;20595;-72
2022/10/08 07:11:19;;;;;;;13.13;3.10;;;;;;;;;;5051165;28;20043;-72
2022/10/08 07:13:46;;;;;;;12.45;3.30;;;;;;;;;;5049359;28;20125;-72
2022/10/08 07:16:13;;;;;;;18.27;3.75;;;;;;;;;;5025458;28;20045;-72
2022/10/08 07:18:40;;;;;;;13.50;3.80;;;;;;;;;;5042939;28;20037;-72
2022/10/08 07:21:06;;;;;;;14.50;3.22;;;;;;;;;;5052210;28;20120;-72
2022/10/08 07:23:33;;;;;;;13.95;3.38;;;;;;;;;;5040589;28;20088;-72
2022/10/08 07:26:00;;;;;;;14.05;3.15;;;;;;;;;;5052459;28;20049;-72
2022/10/08 07:28:27;;;;;;;15.68;4.57;;;;;;;;;;5049037;28;20040;-72
2022/10/08 07:30:53;;;;;;;12.63;4.07;;;;;;;;;;5048314;28;20037;-72
2022/10/08 07:33:20;;;;;;;12.25;2.90;;;;;;;;;;5048452;28;20525;-71
2022/10/08 07:35:46;;;;;;;11.95;3.25;;;;;;;;;;5051332;28;20072;-72
2022/10/08 07:38:12;;;;;;;10.57;2.88;;;;;;;;;;5049848;28;20514;-72
2022/10/08 07:40:38;;;;;;;15.13;3.33;;;;;;;;;;5050543;28;20440;-72
2022/10/08 07:43:04;;;;;;;11.43;2.47;;;;;;;;;;5031894;28;20166;-72
2022/10/08 07:45:31;;;;;;;9.70;2.60;;;;;;;;;;5054844;28;20127;-72
2022/10/08 07:47:57;;;;;;;9.57;2.20;;;;;;;;;;5033218;28;20087;-72
2022/10/08 07:50:23;;;;;;;13.07;2.80;;;;;;;;;;5051242;28;20041;-72
2022/10/08 07:52:49;;;;;;;8.65;2.20;;;;;;;;;;5051104;28;20044;-71
2022/10/08 07:55:15;;;;;;;12.07;2.65;;;;;;;;;;5052010;28;20501;-72
2022/10/08 07:57:41;;;;;;;12.38;2.50;;;;;;;;;;5049272;28;20041;-74
2022/10/08 08:00:07;;;;;;;12.55;2.30;;;;;;;;;;5033997;28;20071;-76
2022/10/08 08:02:33;;;;;;;12.65;2.40;;;;;;;;;;5052185;28;20621;-76
2022/10/08 08:04:59;;;;;;;12.60;2.20;;;;;;;;;;5043811;28;20133;-75
2022/10/08 08:07:26;;;;;;;11.07;2.22;;;;;;;;;;5040481;28;20052;-73
2022/10/08 08:09:52;;;;;;;11.15;2.08;;;;;;;;;;5029064;28;20037;-73
2022/10/08 08:12:18;;;;;;;15.68;2.20;;;;;;;;;;5031833;28;20046;-76
2022/10/08 08:14:44;;;;;;;12.27;1.90;;;;;;;;;;5040162;28;20049;-73
2022/10/08 08:17:10;;;;;;;13.27;2.10;;;;;;;;;;5052294;28;20102;-73
2022/10/08 08:19:39;;;;;;;11.85;2.20;;;;;;;;;;5055203;28;20045;-73
2022/10/08 08:22:05;;;;;;;11.00;1.92;;;;;;;;;;5027388;28;20049;-72
2022/10/08 08:24:31;;;;;;;13.75;1.90;;;;;;;;;;5030119;28;20048;-73
2022/10/08 08:26:57;;;;;;;11.98;1.90;;;;;;;;;;5041477;28;20109;-72
2022/10/08 08:29:23;;;;;;;12.52;1.80;;;;;;;;;;5051368;28;20045;-73
2022/10/08 08:31:50;;;;;;;12.10;2.10;;;;;;;;;;5048492;28;20124;-73
2022/10/08 08:34:17;;;;;;;13.32;1.70;;;;;;;;;;5051259;28;20057;-72
2022/10/08 08:36:44;;;;;;;13.13;1.75;;;;;;;;;;5023479;28;20538;-72
2022/10/08 08:39:14;;;;;;;11.25;1.75;;;;;;;;;;5050237;28;20041;-72
2022/10/08 08:41:55;;;;;;;9.55;1.85;;;;;;;;;;5031670;28;20053;-73
2022/10/08 08:44:25;;;;;;;11.32;2.55;;;;;;;;;;5031659;28;20466;-72
2022/10/08 08:46:56;;;;;;;18.38;2.53;;;;;;;;;;5044291;28;20083;-73
2022/10/08 08:49:32;;;;;;;12.30;1.83;;;;;;;;;;5061531;28;20503;-74
2022/10/08 08:51:59;;;;;;;15.85;1.85;;;;;;;;;;5058439;28;20177;-73
2022/10/08 08:54:25;;;;;;;12.10;1.75;;;;;;;;;;5055058;28;20128;-73
2022/10/08 08:56:52;;;;;;;13.93;2.13;;;;;;;;;;5045721;28;20551;-73
2022/10/08 08:59:29;;;;;;;12.77;2.08;;;;;;;;;;5049880;28;20076;-73
2022/10/08 09:01:58;;;;;;;11.23;1.70;;;;;;;;;;5044857;28;20041;-72
2022/10/08 09:04:42;;;;;;;8.55;1.77;;;;;;;;;;5040183;28;20055;-73
2022/10/08 09:07:12;;;;;;;10.35;1.70;;;;;;;;;;5029924;28;20103;-72
2022/10/08 09:09:40;;;;;;;14.70;1.88;;;;;;;;;;5046165;28;20040;-72
2022/10/08 09:12:29;;;;;;;11.68;2.17;;;;;;;;;;5052840;28;20128;-72
2022/10/08 09:14:57;;;;;;;14.43;1.98;;;;;;;;;;5045712;28;20061;-72
2022/10/08 09:17:29;;;;;;;10.75;1.80;;;;;;;;;;5053857;28;20098;-72
2022/10/08 09:19:55;;;;;;;9.23;1.52;;;;;;;;;;5052863;28;20048;-72
2022/10/08 09:22:26;;;;;;;8.88;1.55;;;;;;;;;;5050767;28;20479;-73
2022/10/08 09:24:58;;;;;;;11.65;1.45;;;;;;;;;;5054738;28;20049;-72
2022/10/08 09:27:24;;;;;;;9.52;1.58;;;;;;;;;;5054888;28;20044;-73
2022/10/08 09:29:50;;;;;;;10.57;1.60;;;;;;;;;;5054631;28;20084;-73
2022/10/08 09:32:17;;;;;;;11.32;1.67;;;;;;;;;;5062166;28;20084;-73
2022/10/08 09:34:45;;;;;;;10.07;1.40;;;;;;;;;;5036508;28;20099;-73
2022/10/08 09:37:22;;;;;;;11.63;1.30;;;;;;;;;;5052992;28;20052;-73
2022/10/08 09:40:05;;;;;;;9.85;1.38;;;;;;;;;;5053687;28;20052;-73
2022/10/08 09:42:31;;;;;;;11.00;1.40;;;;;;;;;;5034403;28;20472;-73
2022/10/08 09:45:02;;;;;;;11.50;1.40;;;;;;;;;;5034454;28;20053;-72
2022/10/08 09:47:29;;;;;;;7.60;1.27;;;;;;;;;;5034216;28;20499;-73
2022/10/08 09:50:14;;;;;;;7.40;1.00;;;;;;;;;;5016587;28;20496;-73
2022/10/08 09:52:41;;;;;;;8.80;1.40;;;;;;;;;;5034422;28;20049;-73
2022/10/08 09:55:19;;;;;;;9.57;1.25;;;;;;;;;;5021764;28;20048;-73
2022/10/08 09:57:49;;;;;;;10.45;1.48;;;;;;;;;;5034195;28;20067;-73
2022/10/08 10:00:26;;;;;;;10.57;1.55;;;;;;;;;;5053444;28;20049;-73
2022/10/08 10:02:54;;;;;;;8.65;1.30;;;;;;;;;;5053243;28;20052;-72
2022/10/08 10:05:24;;;;;;;6.57;1.25;;;;;;;;;;5053438;28;20483;-72
2022/10/08 10:07:50;;;;;;;9.82;1.20;;;;;;;;;;5069665;28;20528;-72
2022/10/08 10:10:22;;;;;;;10.13;1.42;;;;;;;;;;5053085;28;20503;-72
2022/10/08 10:12:52;;;;;;;5.45;0.90;;;;;;;;;;5054286;28;20046;-72
2022/10/08 10:15:20;;;;;;;8.82;1.33;;;;;;;;;;5053624;28;20076;-72
2022/10/08 10:17:54;;;;;;;9.90;1.70;;;;;;;;;;5056614;28;20049;-71
2022/10/08 10:20:29;;;;;;;8.45;1.50;;;;;;;;;;5053605;28;20102;-72
2022/10/08 10:22:55;;;;;;;8.38;1.20;;;;;;;;;;5033758;28;20044;-72
2022/10/08 10:25:42;;;;;;;9.90;1.40;;;;;;;;;;5046563;28;20407;-72
2022/10/08 10:28:16;;;;;;;9.10;1.38;;;;;;;;;;5053463;28;20079;-72
2022/10/08 10:30:52;;;;;;;9.82;1.15;;;;;;;;;;5038060;28;20052;-72
2022/10/08 10:33:21;;;;;;;11.32;1.25;;;;;;;;;;5034287;28;20056;-72
2022/10/08 10:35:53;;;;;;;10.20;1.60;;;;;;;;;;5046763;28;20057;-72
2022/10/08 10:38:23;;;;;;;9.10;1.10;;;;;;;;;;5044216;28;20045;-72
2022/10/08 10:41:07;;;;;;;9.52;1.27;;;;;;;;;;5053247;28;20091;-72
2022/10/08 10:43:37;;;;;;;11.85;1.50;;;;;;;;;;5036921;28;20033;-72
2022/10/08 10:46:10;;;;;;;12.45;1.38;;;;;;;;;;5053834;28;20050;-72
2022/10/08 10:48:36;;;;;;;12.30;1.50;;;;;;;;;;5015536;28;20575;-72
2022/10/08 10:51:20;;;;;;;8.82;1.38;;;;;;;;;;5033223;28;20132;-72
2022/10/08 10:53:55;;;;;;;12.50;1.60;;;;;;;;;;5051289;28;20037;-72
2022/10/08 10:56:22;;;;;;;11.50;1.13;;;;;;;;;;5052836;28;20045;-72
2022/10/08 10:59:11;;;;;;;10.27;1.45;;;;;;;;;;5053160;28;20199;-72
2022/10/08 11:01:48;;;;;;;9.82;1.60;;;;;;;;;;5046280;28;20420;-72
2022/10/08 11:04:19;;;;;;;9.23;1.33;;;;;;;;;;5060210;28;20061;-73
2022/10/08 11:06:52;;;;;;;8.25;1.20;;;;;;;;;;5051682;28;20044;-72
2022/10/08 11:09:28;;;;;;;7.72;1.23;;;;;;;;;;5052749;28;20459;-72
2022/10/08 11:11:58;;;;;;;11.30;1.63;;;;;;;;;;5052238;28;20048;-72
2022/10/08 11:14:33;;;;;;;6.88;1.00;;;;;;;;;;5051397;28;20037;-72
2022/10/08 11:17:07;;;;;;;8.90;1.58;;;;;;;;;;5072289;28;20075;-72
2022/10/08 11:19:56;;;;;;;7.75;1.27;;;;;;;;;;5072683;28;20079;-72
2022/10/08 11:22:22;;;;;;;6.05;1.10;;;;;;;;;;5055281;28;20682;-72
2022/10/08 11:24:58;;;;;;;9.00;1.20;;;;;;;;;;5051365;28;20113;-71
2022/10/08 11:27:33;;;;;;;5.85;1.15;;;;;;;;;;5048183;28;20073;-72
2022/10/08 11:30:02;;;;;;;9.32;1.40;;;;;;;;;;5032581;28;20049;-72
2022/10/08 11:32:29;;;;;;;6.47;1.10;;;;;;;;;;5030452;28;20060;-72
2022/10/08 11:35:03;;;;;;;8.50;1.10;;;;;;;;;;5048973;28;20049;-72
2022/10/08 11:37:40;;;;;;;9.85;1.40;;;;;;;;;;5048062;28;20127;-71
2022/10/08 11:40:13;;;;;;;6.10;1.10;;;;;;;;;;5046758;28;20140;-72
2022/10/08 11:42:58;;;;;;;10.80;1.50;;;;;;;;;;5049334;28;20049;-73
2022/10/08 11:45:24;;;;;;;7.20;1.13;;;;;;;;;;5044962;28;20441;-73
2022/10/08 11:47:52;;;;;;;6.63;1.00;;;;;;;;;;5051019;28;20056;-74
2022/10/08 11:50:20;;;;;;;4.15;1.10;;;;;;;;;;5051513;28;20124;-75
2022/10/08 11:52:46;;;;;;;6.78;1.17;;;;;;;;;;5059148;28;20107;-74
2022/10/08 11:55:19;;;;;;;8.70;1.15;;;;;;;;;;5049293;28;20052;-74
2022/10/08 11:57:53;;;;;;;7.85;1.52;;;;;;;;;;5033074;28;20049;-76
2022/10/08 12:00:38;;;;;;;7.28;1.15;;;;;;;;;;5050192;28;20044;-76
2022/10/08 12:03:06;;;;;;;7.05;1.10;;;;;;;;;;5051954;28;20475;-73
2022/10/08 12:05:35;;;;;;;8.23;1.13;;;;;;;;;;5050439;28;20419;-74
2022/10/08 12:08:02;;;;;;;8.07;1.73;;;;;;;;;;5032947;28;20045;-74
2022/10/08 12:10:38;;;;;;;7.38;1.30;;;;;;;;;;5050682;28;20102;-72
2022/10/08 12:13:04;;;;;;;8.30;1.40;;;;;;;;;;5051505;28;20053;-73
2022/10/08 12:15:32;;;;;;;5.40;1.08;;;;;;;;;;5051729;28;20048;-73
2022/10/08 12:17:58;;;;;;;8.82;1.30;;;;;;;;;;5067009;28;20509;-74
2022/10/08 12:20:24;;;;;;;7.68;1.13;;;;;;;;;;5049444;28;20609;-73
2022/10/08 12:23:01;;;;;;;10.32;1.58;;;;;;;;;;5051458;28;20118;-74
2022/10/08 12:25:32;;;;;;;6.70;1.25;;;;;;;;;;5050927;28;20036;-73
2022/10/08 12:28:17;;;;;;;10.02;1.30;;;;;;;;;;5051850;28;20053;-73
2022/10/08 12:30:46;;;;;;;10.73;1.60;;;;;;;;;;5051864;28;20398;-72
2022/10/08 12:33:12;;;;;;;12.02;1.70;;;;;;;;;;5049400;28;20059;-74
2022/10/08 12:35:46;;;;;;;7.47;1.25;;;;;;;;;;5050817;28;20049;-73
2022/10/08 12:38:12;;;;;;;10.07;1.50;;;;;;;;;;5051147;28;20041;-75
2022/10/08 12:40:50;;;;;;;9.70;1.55;;;;;;;;;;5051585;28;20449;-73
2022/10/08 12:43:21;;;;;;;10.52;1.33;;;;;;;;;;5037397;28;20042;-73
2022/10/08 12:45:53;;;;;;;9.73;1.63;;;;;;;;;;5034092;28;20049;-76
2022/10/08 12:48:32;;;;;;;11.30;1.30;;;;;;;;;;5071618;28;20131;-76
2022/10/08 12:51:03;;;;;;;9.38;1.50;;;;;;;;;;5040286;28;20054;-76
2022/10/08 12:53:29;;;;;;;7.65;1.27;;;;;;;;;;5038548;28;20095;-75
2022/10/08 12:55:57;;;;;;;8.05;1.45;;;;;;;;;;5035305;28;20048;-75
2022/10/08 12:58:25;;;;;;;7.38;1.30;;;;;;;;;;5053680;28;20055;-71
2022/10/08 13:00:53;;;;;;;9.95;1.60;;;;;;;;;;5034881;28;20041;-73
2022/10/08 13:03:20;;;;;;;8.55;1.35;;;;;;;;;;5052917;28;20072;-73
2022/10/08 13:05:47;;;;;;;8.93;1.45;;;;;;;;;;5055060;28;20453;-73
2022/10/08 13:08:27;;;;;;;7.25;1.40;;;;;;;;;;5054835;28;20109;-73
2022/10/08 13:10:53;;;;;;;10.38;1.40;;;;;;;;;;5054821;28;20049;-73
2022/10/08 13:13:31;;;;;;;7.63;1.30;;;;;;;;;;5054231;28;20045;-73
2022/10/08 13:15:58;;;;;;;10.07;1.38;;;;;;;;;;5054718;28;20407;-73
2022/10/08 13:18:24;;;;;;;11.63;1.88;;;;;;;;;;5065986;28;20056;-76
2022/10/08 13:21:00;;;;;;;7.57;1.17;;;;;;;;;;5053904;28;20045;-72
2022/10/08 13:23:36;;;;;;;5.35;0.98;;;;;;;;;;5049996;28;20056;-73
2022/10/08 13:26:02;;;;;;;10.40;1.23;;;;;;;;;;5052607;28;20044;-72
2022/10/08 13:28:28;;;;;;;11.23;1.63;;;;;;;;;;5054673;28;20127;-73
2022/10/08 13:30:58;;;;;;;11.25;1.40;;;;;;;;;;5019655;28;20487;-73
2022/10/08 13:33:28;;;;;;;8.70;1.55;;;;;;;;;;5043099;28;20053;-73
2022/10/08 13:35:56;;;;;;;12.05;1.75;;;;;;;;;;5034532;28;20054;-73
2022/10/08 13:38:30;;;;;;;7.65;1.23;;;;;;;;;;5034439;28;20042;-73
2022/10/08 13:40:57;;;;;;;10.10;1.90;;;;;;;;;;5042664;28;20049;-73
2022/10/08 13:43:24;;;;;;;7.00;1.15;;;;;;;;;;5051106;28;20490;-73
2022/10/08 13:45:50;;;;;;;10.57;1.55;;;;;;;;;;5051780;28;20053;-73
2022/10/08 13:48:17;;;;;;;10.35;1.40;;;;;;;;;;5055282;28;20106;-73
2022/10/08 13:50:47;;;;;;;8.05;1.00;;;;;;;;;;5055906;28;20045;-73
2022/10/08 13:53:15;;;;;;;6.30;1.00;;;;;;;;;;5053323;28;20139;-72
2022/10/08 13:55:43;;;;;;;8.38;1.10;;;;;;;;;;5053611;28;20045;-73
2022/10/08 13:58:10;;;;;;;7.57;1.40;;;;;;;;;;5042033;28;20049;-72
2022/10/08 14:00:40;;;;;;;6.70;1.00;;;;;;;;;;5043084;28;20124;-72
2022/10/08 14:03:06;;;;;;;7.50;1.20;;;;;;;;;;5052493;28;20091;-72
2022/10/08 14:05:34;;;;;;;9.30;1.45;;;;;;;;;;5049416;28;20504;-73
2022/10/08 14:08:02;;;;;;;8.93;1.85;;;;;;;;;;5049651;28;20079;-72
2022/10/08 14:10:28;;;;;;;8.23;1.08;;;;;;;;;;5052811;28;20032;-72
2022/10/08 14:12:54;;;;;;;5.70;1.38;;;;;;;;;;5051798;28;20045;-72
2022/10/08 14:15:20;;;;;;;7.90;1.33;;;;;;;;;;5041908;28;20045;-72
2022/10/08 14:17:48;;;;;;;7.72;1.30;;;;;;;;;;5052086;28;20502;-73
2022/10/08 14:20:14;;;;;;;7.78;1.10;;;;;;;;;;5052477;28;20051;-73
2022/10/08 14:22:40;;;;;;;10.13;1.48;;;;;;;;;;5048301;28;20403;-73
2022/10/08 14:25:15;;;;;;;9.32;1.40;;;;;;;;;;5053125;28;20076;-73
2022/10/08 14:27:41;;;;;;;8.27;0.93;;;;;;;;;;5053113;28;20052;-73
2022/10/08 14:30:08;;;;;;;9.75;1.35;;;;;;;;;;5051862;28;20049;-73
2022/10/08 14:32:34;;;;;;;8.63;1.38;;;;;;;;;;5051902;28;20458;-73
2022/10/08 14:35:00;;;;;;;8.23;1.30;;;;;;;;;;5035665;28;20056;-72
2022/10/08 14:37:26;;;;;;;8.35;1.13;;;;;;;;;;5051758;28;20047;-73
2022/10/08 14:39:52;;;;;;;7.72;1.50;;;;;;;;;;5052408;28;20054;-72
2022/10/08 14:42:18;;;;;;;9.32;1.30;;;;;;;;;;5025041;28;20072;-73
2022/10/08 14:44:46;;;;;;;8.90;1.38;;;;;;;;;;5052524;28;20037;-72
2022/10/08 14:47:12;;;;;;;7.38;1.30;;;;;;;;;;5052373;28;20048;-72